sensor_id;sensor_type;location;lat;lon;timestamp;P1;durP1;ratioP1;P2;durP2;ratioP2
52708;SDS011;38606;52.986;6.980;2022-10-04T00:01:26;11.95;;;6.10;;
52708;SDS011;38606;52.986;6.980;2022-10-04T00:04:51;17.48;;;6.65;;
52708;SDS011;38606;52.986;6.980;2022-10-04T00:09:49;13.07;;;6.60;;
52708;SDS011;38606;52.986;6.980;2022-10-04T00:12:37;16.77;;;7.13;;
52708;SDS011;38606;52.986;6.980;2022-10-04T00:15:17;15.55;;;6.28;;
52708;SDS011;38606;52.986;6.980;2022-10-04T00:25:57;19.35;;;6.97;;
52708;SDS011;38606;52.986;6.980;2022-10-04T00:41:54;20.92;;;8.07;;
52708;SDS011;38606;52.986;6.980;2022-10-04T00:47:31;13.93;;;8.18;;
52708;SDS011;38606;52.986;6.980;2022-10-04T00:52:41;19.90;;;8.10;;
52708;SDS011;38606;52.986;6.980;2022-10-04T00:55:17;18.92;;;8.23;;
52708;SDS011;38606;52.986;6.980;2022-10-04T00:58:12;16.00;;;8.32;;
52708;SDS011;38606;52.986;6.980;2022-10-04T01:00:42;15.38;;;8.05;;
52708;SDS011;38606;52.986;6.980;2022-10-04T01:03:13;19.30;;;7.85;;
52708;SDS011;38606;52.986;6.980;2022-10-04T01:05:53;14.80;;;7.35;;
52708;SDS011;38606;52.986;6.980;2022-10-04T01:11:02;13.02;;;7.63;;
52708;SDS011;38606;52.986;6.980;2022-10-04T01:13:49;17.42;;;7.70;;
52708;SDS011;38606;52.986;6.980;2022-10-04T01:16:33;16.80;;;7.82;;
52708;SDS011;38606;52.986;6.980;2022-10-04T01:24:33;15.65;;;7.90;;
52708;SDS011;38606;52.986;6.980;2022-10-04T01:27:05;15.57;;;8.40;;
52708;SDS011;38606;52.986;6.980;2022-10-04T01:29:59;19.00;;;8.02;;
52708;SDS011;38606;52.986;6.980;2022-10-04T01:32:25;13.85;;;8.65;;
52708;SDS011;38606;52.986;6.980;2022-10-04T01:34:51;16.67;;;8.10;;
52708;SDS011;38606;52.986;6.980;2022-10-04T01:37:17;20.98;;;8.90;;
52708;SDS011;38606;52.986;6.980;2022-10-04T01:39:43;17.52;;;8.32;;
52708;SDS011;38606;52.986;6.980;2022-10-04T01:42:10;17.95;;;8.27;;
52708;SDS011;38606;52.986;6.980;2022-10-04T01:50:03;18.15;;;7.65;;
52708;SDS011;38606;52.986;6.980;2022-10-04T01:52:38;19.73;;;8.13;;
52708;SDS011;38606;52.986;6.980;2022-10-04T01:55:12;18.15;;;8.35;;
52708;SDS011;38606;52.986;6.980;2022-10-04T01:57:42;16.77;;;8.68;;
52708;SDS011;38606;52.986;6.980;2022-10-04T02:00:16;22.05;;;8.32;;
52708;SDS011;38606;52.986;6.980;2022-10-04T02:02:53;19.00;;;8.80;;
52708;SDS011;38606;52.986;6.980;2022-10-04T02:05:37;17.88;;;7.47;;
52708;SDS011;38606;52.986;6.980;2022-10-04T02:08:09;14.55;;;8.10;;
52708;SDS011;38606;52.986;6.980;2022-10-04T02:10:37;16.65;;;9.05;;
52708;SDS011;38606;52.986;6.980;2022-10-04T02:13:07;20.70;;;8.68;;
52708;SDS011;38606;52.986;6.980;2022-10-04T02:15:35;17.20;;;8.45;;
52708;SDS011;38606;52.986;6.980;2022-10-04T02:18:15;16.50;;;7.85;;
52708;SDS011;38606;52.986;6.980;2022-10-04T02:20:44;19.13;;;7.93;;
52708;SDS011;38606;52.986;6.980;2022-10-04T02:23:12;14.07;;;7.47;;
52708;SDS011;38606;52.986;6.980;2022-10-04T02:25:42;12.75;;;7.90;;
52708;SDS011;38606;52.986;6.980;2022-10-04T02:28:08;13.95;;;8.23;;
52708;SDS011;38606;52.986;6.980;2022-10-04T02:30:35;23.48;;;9.25;;
52708;SDS011;38606;52.986;6.980;2022-10-04T02:33:02;15.98;;;9.32;;
52708;SDS011;38606;52.986;6.980;2022-10-04T02:35:33;22.67;;;8.43;;
52708;SDS011;38606;52.986;6.980;2022-10-04T02:40:47;18.03;;;9.33;;
52708;SDS011;38606;52.986;6.980;2022-10-04T02:43:15;14.95;;;8.30;;
52708;SDS011;38606;52.986;6.980;2022-10-04T02:45:58;16.08;;;8.45;;
52708;SDS011;38606;52.986;6.980;2022-10-04T02:51:24;21.60;;;8.43;;
52708;SDS011;38606;52.986;6.980;2022-10-04T02:54:01;17.83;;;10.00;;
52708;SDS011;38606;52.986;6.980;2022-10-04T02:56:41;19.80;;;8.75;;
52708;SDS011;38606;52.986;6.980;2022-10-04T02:59:10;21.02;;;9.68;;
52708;SDS011;38606;52.986;6.980;2022-10-04T03:01:41;20.65;;;8.82;;
52708;SDS011;38606;52.986;6.980;2022-10-04T03:04:22;18.90;;;8.95;;
52708;SDS011;38606;52.986;6.980;2022-10-04T03:06:50;19.98;;;9.15;;
52708;SDS011;38606;52.986;6.980;2022-10-04T03:09:18;19.60;;;9.73;;
52708;SDS011;38606;52.986;6.980;2022-10-04T03:11:46;19.23;;;10.05;;
52708;SDS011;38606;52.986;6.980;2022-10-04T03:14:15;18.27;;;9.43;;
52708;SDS011;38606;52.986;6.980;2022-10-04T03:16:50;19.70;;;9.95;;
52708;SDS011;38606;52.986;6.980;2022-10-04T03:19:18;26.65;;;10.43;;
52708;SDS011;38606;52.986;6.980;2022-10-04T03:21:50;17.77;;;9.38;;
52708;SDS011;38606;52.986;6.980;2022-10-04T03:24:20;18.30;;;9.13;;
52708;SDS011;38606;52.986;6.980;2022-10-04T03:26:53;22.42;;;10.85;;
52708;SDS011;38606;52.986;6.980;2022-10-04T03:29:21;22.67;;;10.70;;
52708;SDS011;38606;52.986;6.980;2022-10-04T03:31:52;24.52;;;9.43;;
52708;SDS011;38606;52.986;6.980;2022-10-04T03:36:48;17.90;;;9.57;;
52708;SDS011;38606;52.986;6.980;2022-10-04T03:39:18;15.98;;;8.73;;
52708;SDS011;38606;52.986;6.980;2022-10-04T03:41:51;22.20;;;9.23;;
52708;SDS011;38606;52.986;6.980;2022-10-04T03:44:18;16.55;;;9.35;;
52708;SDS011;38606;52.986;6.980;2022-10-04T03:46:45;13.07;;;9.07;;
52708;SDS011;38606;52.986;6.980;2022-10-04T03:49:16;17.50;;;9.27;;
52708;SDS011;38606;52.986;6.980;2022-10-04T03:51:50;19.00;;;8.73;;
52708;SDS011;38606;52.986;6.980;2022-10-04T03:54:17;19.85;;;9.23;;
52708;SDS011;38606;52.986;6.980;2022-10-04T03:56:47;15.15;;;8.20;;
52708;SDS011;38606;52.986;6.980;2022-10-04T03:59:18;17.10;;;8.48;;
52708;SDS011;38606;52.986;6.980;2022-10-04T04:02:31;21.65;;;8.52;;
52708;SDS011;38606;52.986;6.980;2022-10-04T04:07:36;16.85;;;8.98;;
52708;SDS011;38606;52.986;6.980;2022-10-04T04:10:26;18.00;;;8.48;;
52708;SDS011;38606;52.986;6.980;2022-10-04T04:13:14;20.88;;;8.75;;
52708;SDS011;38606;52.986;6.980;2022-10-04T04:15:46;18.88;;;9.32;;
52708;SDS011;38606;52.986;6.980;2022-10-04T04:18:14;18.48;;;8.40;;
52708;SDS011;38606;52.986;6.980;2022-10-04T04:20:43;13.77;;;8.73;;
52708;SDS011;38606;52.986;6.980;2022-10-04T04:25:43;20.02;;;8.98;;
52708;SDS011;38606;52.986;6.980;2022-10-04T04:28:26;19.27;;;9.75;;
52708;SDS011;38606;52.986;6.980;2022-10-04T04:31:08;16.77;;;9.65;;
52708;SDS011;38606;52.986;6.980;2022-10-04T04:33:44;16.95;;;10.35;;
52708;SDS011;38606;52.986;6.980;2022-10-04T04:36:20;18.73;;;9.88;;
52708;SDS011;38606;52.986;6.980;2022-10-04T04:38:46;23.00;;;10.85;;
52708;SDS011;38606;52.986;6.980;2022-10-04T04:41:30;17.98;;;9.73;;
52708;SDS011;38606;52.986;6.980;2022-10-04T04:44:01;22.98;;;10.35;;
52708;SDS011;38606;52.986;6.980;2022-10-04T04:46:27;21.40;;;10.18;;
52708;SDS011;38606;52.986;6.980;2022-10-04T04:48:58;22.60;;;10.73;;
52708;SDS011;38606;52.986;6.980;2022-10-04T04:51:27;20.67;;;10.82;;
52708;SDS011;38606;52.986;6.980;2022-10-04T04:53:55;22.48;;;11.55;;
52708;SDS011;38606;52.986;6.980;2022-10-04T04:56:22;25.92;;;11.30;;
52708;SDS011;38606;52.986;6.980;2022-10-04T04:58:51;22.20;;;11.43;;
52708;SDS011;38606;52.986;6.980;2022-10-04T05:01:40;21.45;;;11.98;;
52708;SDS011;38606;52.986;6.980;2022-10-04T05:06:34;20.27;;;12.57;;
52708;SDS011;38606;52.986;6.980;2022-10-04T05:09:02;24.27;;;12.85;;
52708;SDS011;38606;52.986;6.980;2022-10-04T05:11:35;24.15;;;13.75;;
52708;SDS011;38606;52.986;6.980;2022-10-04T05:14:04;18.38;;;12.38;;
52708;SDS011;38606;52.986;6.980;2022-10-04T05:16:46;23.63;;;12.85;;
52708;SDS011;38606;52.986;6.980;2022-10-04T05:19:28;22.80;;;13.82;;
52708;SDS011;38606;52.986;6.980;2022-10-04T05:22:18;22.65;;;13.40;;
52708;SDS011;38606;52.986;6.980;2022-10-04T05:24:47;30.77;;;14.48;;
52708;SDS011;38606;52.986;6.980;2022-10-04T05:32:49;25.17;;;13.95;;
52708;SDS011;38606;52.986;6.980;2022-10-04T05:35:19;26.33;;;13.65;;
52708;SDS011;38606;52.986;6.980;2022-10-04T05:40:49;22.38;;;13.35;;
52708;SDS011;38606;52.986;6.980;2022-10-04T05:43:21;24.70;;;12.80;;
52708;SDS011;38606;52.986;6.980;2022-10-04T05:49:12;27.58;;;13.95;;
52708;SDS011;38606;52.986;6.980;2022-10-04T05:54:17;18.02;;;12.07;;
52708;SDS011;38606;52.986;6.980;2022-10-04T05:59:39;28.35;;;13.50;;
52708;SDS011;38606;52.986;6.980;2022-10-04T06:05:26;21.08;;;12.88;;
52708;SDS011;38606;52.986;6.980;2022-10-04T06:16:40;27.23;;;14.45;;
52708;SDS011;38606;52.986;6.980;2022-10-04T06:24:31;23.25;;;13.90;;
52708;SDS011;38606;52.986;6.980;2022-10-04T06:27:09;26.05;;;13.48;;
52708;SDS011;38606;52.986;6.980;2022-10-04T06:30:23;28.00;;;13.50;;
52708;SDS011;38606;52.986;6.980;2022-10-04T06:46:39;24.27;;;13.80;;
52708;SDS011;38606;52.986;6.980;2022-10-04T06:59:56;26.08;;;14.50;;
52708;SDS011;38606;52.986;6.980;2022-10-04T07:02:38;24.75;;;14.07;;
52708;SDS011;38606;52.986;6.980;2022-10-04T07:05:15;23.23;;;13.98;;
52708;SDS011;38606;52.986;6.980;2022-10-04T07:07:48;27.05;;;14.65;;
52708;SDS011;38606;52.986;6.980;2022-10-04T07:10:36;26.42;;;15.15;;
52708;SDS011;38606;52.986;6.980;2022-10-04T07:18:24;21.35;;;13.63;;
52708;SDS011;38606;52.986;6.980;2022-10-04T07:21:10;22.88;;;14.32;;
52708;SDS011;38606;52.986;6.980;2022-10-04T07:23:56;22.25;;;14.20;;
52708;SDS011;38606;52.986;6.980;2022-10-04T07:29:05;25.02;;;13.82;;
52708;SDS011;38606;52.986;6.980;2022-10-04T07:32:05;25.58;;;13.02;;
52708;SDS011;38606;52.986;6.980;2022-10-04T07:34:45;22.80;;;13.20;;
52708;SDS011;38606;52.986;6.980;2022-10-04T07:37:21;21.83;;;13.00;;
52708;SDS011;38606;52.986;6.980;2022-10-04T07:48:09;24.45;;;13.60;;
52708;SDS011;38606;52.986;6.980;2022-10-04T07:50:47;18.10;;;11.80;;
52708;SDS011;38606;52.986;6.980;2022-10-04T07:53:26;20.35;;;12.35;;
52708;SDS011;38606;52.986;6.980;2022-10-04T07:56:05;21.40;;;12.77;;
52708;SDS011;38606;52.986;6.980;2022-10-04T08:12:51;23.58;;;12.80;;
52708;SDS011;38606;52.986;6.980;2022-10-04T08:15:38;22.25;;;12.82;;
52708;SDS011;38606;52.986;6.980;2022-10-04T08:20:42;26.48;;;12.85;;
52708;SDS011;38606;52.986;6.980;2022-10-04T08:37:38;20.30;;;10.73;;
52708;SDS011;38606;52.986;6.980;2022-10-04T09:08:23;20.90;;;8.20;;
52708;SDS011;38606;52.986;6.980;2022-10-04T09:11:41;20.92;;;7.82;;
52708;SDS011;38606;52.986;6.980;2022-10-04T09:17:15;14.73;;;6.80;;
52708;SDS011;38606;52.986;6.980;2022-10-04T09:20:00;20.27;;;6.95;;
52708;SDS011;38606;52.986;6.980;2022-10-04T09:33:53;11.75;;;5.47;;
52708;SDS011;38606;52.986;6.980;2022-10-04T09:36:53;8.80;;;4.30;;
52708;SDS011;38606;52.986;6.980;2022-10-04T09:47:21;12.30;;;4.78;;
52708;SDS011;38606;52.986;6.980;2022-10-04T10:06:47;11.48;;;6.03;;
52708;SDS011;38606;52.986;6.980;2022-10-04T10:18:08;11.85;;;5.30;;
52708;SDS011;38606;52.986;6.980;2022-10-04T10:23:36;12.15;;;5.25;;
52708;SDS011;38606;52.986;6.980;2022-10-04T10:26:16;10.98;;;4.95;;
52708;SDS011;38606;52.986;6.980;2022-10-04T10:37:40;10.95;;;4.45;;
52708;SDS011;38606;52.986;6.980;2022-10-04T10:41:11;14.07;;;4.93;;
52708;SDS011;38606;52.986;6.980;2022-10-04T11:13:59;8.07;;;4.40;;
52708;SDS011;38606;52.986;6.980;2022-10-04T11:22:50;7.68;;;3.47;;
52708;SDS011;38606;52.986;6.980;2022-10-04T11:31:15;12.45;;;4.80;;
52708;SDS011;38606;52.986;6.980;2022-10-04T11:37:14;7.88;;;4.50;;
52708;SDS011;38606;52.986;6.980;2022-10-04T11:40:00;9.30;;;4.28;;
52708;SDS011;38606;52.986;6.980;2022-10-04T11:56:44;9.85;;;4.35;;
52708;SDS011;38606;52.986;6.980;2022-10-04T12:07:41;7.88;;;4.10;;
52708;SDS011;38606;52.986;6.980;2022-10-04T12:10:14;11.57;;;4.20;;
52708;SDS011;38606;52.986;6.980;2022-10-04T12:15:33;9.98;;;3.90;;
52708;SDS011;38606;52.986;6.980;2022-10-04T12:21:01;9.73;;;4.43;;
52708;SDS011;38606;52.986;6.980;2022-10-04T12:32:05;11.20;;;3.70;;
52708;SDS011;38606;52.986;6.980;2022-10-04T12:34:41;7.65;;;3.10;;
52708;SDS011;38606;52.986;6.980;2022-10-04T12:37:33;9.43;;;3.60;;
52708;SDS011;38606;52.986;6.980;2022-10-04T12:42:59;8.85;;;3.63;;
52708;SDS011;38606;52.986;6.980;2022-10-04T13:05:10;6.90;;;3.45;;
52708;SDS011;38606;52.986;6.980;2022-10-04T13:24:39;9.15;;;3.90;;
52708;SDS011;38606;52.986;6.980;2022-10-04T13:35:33;10.48;;;4.85;;
52708;SDS011;38606;52.986;6.980;2022-10-04T13:46:20;8.23;;;4.55;;
52708;SDS011;38606;52.986;6.980;2022-10-04T13:49:00;9.60;;;4.60;;
52708;SDS011;38606;52.986;6.980;2022-10-04T13:51:57;11.02;;;4.20;;
52708;SDS011;38606;52.986;6.980;2022-10-04T13:55:18;10.15;;;5.03;;
52708;SDS011;38606;52.986;6.980;2022-10-04T14:04:02;12.88;;;4.57;;
52708;SDS011;38606;52.986;6.980;2022-10-04T14:09:41;7.82;;;4.05;;
52708;SDS011;38606;52.986;6.980;2022-10-04T14:12:17;10.60;;;4.78;;
52708;SDS011;38606;52.986;6.980;2022-10-04T14:26:17;7.80;;;4.10;;
52708;SDS011;38606;52.986;6.980;2022-10-04T14:40:49;8.38;;;3.72;;
52708;SDS011;38606;52.986;6.980;2022-10-04T15:10:48;9.85;;;4.35;;
52708;SDS011;38606;52.986;6.980;2022-10-04T15:19:57;7.15;;;3.95;;
52708;SDS011;38606;52.986;6.980;2022-10-04T15:24:45;12.00;;;4.35;;
52708;SDS011;38606;52.986;6.980;2022-10-04T15:29:50;10.40;;;4.50;;
52708;SDS011;38606;52.986;6.980;2022-10-04T15:35:18;13.52;;;5.30;;
52708;SDS011;38606;52.986;6.980;2022-10-04T15:43:18;9.63;;;4.43;;
52708;SDS011;38606;52.986;6.980;2022-10-04T15:51:49;10.75;;;4.80;;
52708;SDS011;38606;52.986;6.980;2022-10-04T16:03:07;10.07;;;4.28;;
52708;SDS011;38606;52.986;6.980;2022-10-04T16:05:42;11.77;;;4.68;;
52708;SDS011;38606;52.986;6.980;2022-10-04T16:16:33;8.02;;;3.78;;
52708;SDS011;38606;52.986;6.980;2022-10-04T16:24:53;8.05;;;4.10;;
52708;SDS011;38606;52.986;6.980;2022-10-04T16:30:21;11.05;;;4.88;;
52708;SDS011;38606;52.986;6.980;2022-10-04T16:33:00;8.50;;;4.85;;
52708;SDS011;38606;52.986;6.980;2022-10-04T16:36:06;10.45;;;4.20;;
52708;SDS011;38606;52.986;6.980;2022-10-04T16:38:46;10.25;;;4.15;;
52708;SDS011;38606;52.986;6.980;2022-10-04T16:41:35;14.48;;;4.32;;
52708;SDS011;38606;52.986;6.980;2022-10-04T16:46:37;7.70;;;4.32;;
52708;SDS011;38606;52.986;6.980;2022-10-04T16:54:36;9.20;;;4.05;;
52708;SDS011;38606;52.986;6.980;2022-10-04T16:57:12;9.77;;;4.35;;
52708;SDS011;38606;52.986;6.980;2022-10-04T16:59:48;8.85;;;4.28;;
52708;SDS011;38606;52.986;6.980;2022-10-04T17:02:23;9.05;;;4.53;;
52708;SDS011;38606;52.986;6.980;2022-10-04T17:16:23;10.18;;;5.13;;
52708;SDS011;38606;52.986;6.980;2022-10-04T17:30:15;9.98;;;5.13;;
52708;SDS011;38606;52.986;6.980;2022-10-04T17:38:08;13.27;;;5.30;;
52708;SDS011;38606;52.986;6.980;2022-10-04T17:46:07;8.60;;;5.50;;
52708;SDS011;38606;52.986;6.980;2022-10-04T17:48:45;10.70;;;5.57;;
52708;SDS011;38606;52.986;6.980;2022-10-04T17:51:52;14.30;;;5.90;;
52708;SDS011;38606;52.986;6.980;2022-10-04T18:00:08;12.27;;;6.10;;
52708;SDS011;38606;52.986;6.980;2022-10-04T18:05:16;10.55;;;5.57;;
52708;SDS011;38606;52.986;6.980;2022-10-04T18:07:56;10.45;;;5.70;;
52708;SDS011;38606;52.986;6.980;2022-10-04T18:10:34;15.70;;;7.05;;
52708;SDS011;38606;52.986;6.980;2022-10-04T18:13:38;12.10;;;6.35;;
52708;SDS011;38606;52.986;6.980;2022-10-04T18:16:21;8.80;;;5.90;;
52708;SDS011;38606;52.986;6.980;2022-10-04T18:18:48;13.65;;;6.25;;
52708;SDS011;38606;52.986;6.980;2022-10-04T18:26:58;11.88;;;5.90;;
52708;SDS011;38606;52.986;6.980;2022-10-04T18:29:39;11.50;;;6.72;;
52708;SDS011;38606;52.986;6.980;2022-10-04T18:34:55;11.38;;;6.20;;
52708;SDS011;38606;52.986;6.980;2022-10-04T18:42:48;13.25;;;6.72;;
52708;SDS011;38606;52.986;6.980;2022-10-04T18:45:17;11.10;;;5.72;;
52708;SDS011;38606;52.986;6.980;2022-10-04T18:47:50;8.50;;;5.68;;
52708;SDS011;38606;52.986;6.980;2022-10-04T18:53:20;13.55;;;6.03;;
52708;SDS011;38606;52.986;6.980;2022-10-04T18:56:08;10.48;;;5.68;;
52708;SDS011;38606;52.986;6.980;2022-10-04T19:07:06;12.77;;;6.13;;
52708;SDS011;38606;52.986;6.980;2022-10-04T19:12:23;11.93;;;5.75;;
52708;SDS011;38606;52.986;6.980;2022-10-04T19:16:02;11.57;;;5.80;;
52708;SDS011;38606;52.986;6.980;2022-10-04T19:20:50;14.25;;;6.25;;
52708;SDS011;38606;52.986;6.980;2022-10-04T19:23:59;10.82;;;5.38;;
52708;SDS011;38606;52.986;6.980;2022-10-04T19:26:24;9.93;;;5.40;;
52708;SDS011;38606;52.986;6.980;2022-10-04T19:31:43;10.95;;;5.63;;
52708;SDS011;38606;52.986;6.980;2022-10-04T19:34:21;11.27;;;5.93;;
52708;SDS011;38606;52.986;6.980;2022-10-04T19:37:14;11.52;;;5.50;;
52708;SDS011;38606;52.986;6.980;2022-10-04T19:42:53;11.85;;;5.43;;
52708;SDS011;38606;52.986;6.980;2022-10-04T19:45:30;10.02;;;5.70;;
52708;SDS011;38606;52.986;6.980;2022-10-04T19:48:18;12.23;;;5.40;;
52708;SDS011;38606;52.986;6.980;2022-10-04T19:51:04;10.63;;;5.70;;
52708;SDS011;38606;52.986;6.980;2022-10-04T19:53:41;13.48;;;5.75;;
52708;SDS011;38606;52.986;6.980;2022-10-04T19:56:13;10.00;;;5.68;;
52708;SDS011;38606;52.986;6.980;2022-10-04T19:58:43;11.68;;;5.50;;
52708;SDS011;38606;52.986;6.980;2022-10-04T20:01:19;9.57;;;5.50;;
52708;SDS011;38606;52.986;6.980;2022-10-04T20:03:47;13.77;;;6.25;;
52708;SDS011;38606;52.986;6.980;2022-10-04T20:06:34;8.43;;;5.53;;
52708;SDS011;38606;52.986;6.980;2022-10-04T20:09:29;11.77;;;5.30;;
52708;SDS011;38606;52.986;6.980;2022-10-04T20:12:01;14.60;;;5.47;;
52708;SDS011;38606;52.986;6.980;2022-10-04T20:27:00;10.48;;;6.03;;
52708;SDS011;38606;52.986;6.980;2022-10-04T20:34:54;11.15;;;5.68;;
52708;SDS011;38606;52.986;6.980;2022-10-04T20:37:22;9.68;;;5.72;;
52708;SDS011;38606;52.986;6.980;2022-10-04T20:45:43;10.15;;;5.43;;
52708;SDS011;38606;52.986;6.980;2022-10-04T20:48:18;13.15;;;5.53;;
52708;SDS011;38606;52.986;6.980;2022-10-04T20:50:55;11.70;;;5.95;;
52708;SDS011;38606;52.986;6.980;2022-10-04T20:53:30;15.00;;;6.30;;
52708;SDS011;38606;52.986;6.980;2022-10-04T20:58:38;12.32;;;5.88;;
52708;SDS011;38606;52.986;6.980;2022-10-04T21:01:24;9.95;;;5.78;;
52708;SDS011;38606;52.986;6.980;2022-10-04T21:06:55;11.43;;;5.55;;
52708;SDS011;38606;52.986;6.980;2022-10-04T21:09:23;10.32;;;6.53;;
52708;SDS011;38606;52.986;6.980;2022-10-04T21:11:51;9.77;;;6.07;;
52708;SDS011;38606;52.986;6.980;2022-10-04T21:16:49;9.63;;;6.20;;
52708;SDS011;38606;52.986;6.980;2022-10-04T21:21:57;9.57;;;5.80;;
52708;SDS011;38606;52.986;6.980;2022-10-04T21:24:34;13.73;;;6.45;;
52708;SDS011;38606;52.986;6.980;2022-10-04T21:27:11;8.23;;;5.27;;
52708;SDS011;38606;52.986;6.980;2022-10-04T21:29:49;9.85;;;5.40;;
52708;SDS011;38606;52.986;6.980;2022-10-04T21:32:17;12.52;;;6.13;;
52708;SDS011;38606;52.986;6.980;2022-10-04T21:34:43;10.77;;;5.97;;
52708;SDS011;38606;52.986;6.980;2022-10-04T21:37:09;13.30;;;5.90;;
52708;SDS011;38606;52.986;6.980;2022-10-04T21:39:35;9.60;;;5.85;;
52708;SDS011;38606;52.986;6.980;2022-10-04T21:42:00;9.27;;;5.72;;
52708;SDS011;38606;52.986;6.980;2022-10-04T21:44:26;8.95;;;5.78;;
52708;SDS011;38606;52.986;6.980;2022-10-04T21:46:52;9.68;;;5.85;;
52708;SDS011;38606;52.986;6.980;2022-10-04T21:49:17;11.57;;;6.10;;
52708;SDS011;38606;52.986;6.980;2022-10-04T21:51:43;10.73;;;6.15;;
52708;SDS011;38606;52.986;6.980;2022-10-04T21:54:09;13.23;;;6.47;;
52708;SDS011;38606;52.986;6.980;2022-10-04T21:56:35;12.15;;;6.57;;
52708;SDS011;38606;52.986;6.980;2022-10-04T21:59:00;11.98;;;6.40;;
52708;SDS011;38606;52.986;6.980;2022-10-04T22:01:26;15.43;;;5.70;;
52708;SDS011;38606;52.986;6.980;2022-10-04T22:03:51;12.60;;;6.32;;
52708;SDS011;38606;52.986;6.980;2022-10-04T22:06:17;11.55;;;5.47;;
52708;SDS011;38606;52.986;6.980;2022-10-04T22:08:43;10.95;;;5.90;;
52708;SDS011;38606;52.986;6.980;2022-10-04T22:11:09;12.77;;;5.78;;
52708;SDS011;38606;52.986;6.980;2022-10-04T22:13:36;8.50;;;5.88;;
52708;SDS011;38606;52.986;6.980;2022-10-04T22:16:03;10.90;;;6.80;;
52708;SDS011;38606;52.986;6.980;2022-10-04T22:18:30;11.63;;;6.00;;
52708;SDS011;38606;52.986;6.980;2022-10-04T22:20:56;8.02;;;5.72;;
52708;SDS011;38606;52.986;6.980;2022-10-04T22:23:25;8.30;;;5.78;;
52708;SDS011;38606;52.986;6.980;2022-10-04T22:25:52;12.77;;;6.03;;
52708;SDS011;38606;52.986;6.980;2022-10-04T22:28:23;8.73;;;5.70;;
52708;SDS011;38606;52.986;6.980;2022-10-04T22:30:50;10.88;;;6.00;;
52708;SDS011;38606;52.986;6.980;2022-10-04T22:41:38;9.85;;;5.80;;
52708;SDS011;38606;52.986;6.980;2022-10-04T22:46:42;11.48;;;5.93;;
52708;SDS011;38606;52.986;6.980;2022-10-04T22:49:14;14.27;;;6.28;;
52708;SDS011;38606;52.986;6.980;2022-10-04T22:51:42;10.15;;;5.78;;
52708;SDS011;38606;52.986;6.980;2022-10-04T22:54:09;9.45;;;5.93;;
52708;SDS011;38606;52.986;6.980;2022-10-04T22:56:43;9.32;;;5.75;;
52708;SDS011;38606;52.986;6.980;2022-10-04T22:59:09;8.82;;;6.13;;
52708;SDS011;38606;52.986;6.980;2022-10-04T23:01:36;10.38;;;5.88;;
52708;SDS011;38606;52.986;6.980;2022-10-04T23:04:03;12.25;;;6.75;;
52708;SDS011;38606;52.986;6.980;2022-10-04T23:06:36;10.23;;;5.43;;
52708;SDS011;38606;52.986;6.980;2022-10-04T23:09:01;13.07;;;6.20;;
52708;SDS011;38606;52.986;6.980;2022-10-04T23:11:29;11.20;;;6.15;;
52708;SDS011;38606;52.986;6.980;2022-10-04T23:13:56;9.07;;;6.03;;
52708;SDS011;38606;52.986;6.980;2022-10-04T23:16:22;10.40;;;5.95;;
52708;SDS011;38606;52.986;6.980;2022-10-04T23:18:48;9.60;;;5.90;;
52708;SDS011;38606;52.986;6.980;2022-10-04T23:23:45;8.00;;;5.70;;
52708;SDS011;38606;52.986;6.980;2022-10-04T23:26:13;10.52;;;6.47;;
52708;SDS011;38606;52.986;6.980;2022-10-04T23:28:47;9.13;;;6.43;;
52708;SDS011;38606;52.986;6.980;2022-10-04T23:31:31;8.98;;;5.97;;
52708;SDS011;38606;52.986;6.980;2022-10-04T23:33:59;9.80;;;6.45;;
52708;SDS011;38606;52.986;6.980;2022-10-04T23:36:25;10.15;;;6.78;;
52708;SDS011;38606;52.986;6.980;2022-10-04T23:38:52;13.77;;;6.28;;
52708;SDS011;38606;52.986;6.980;2022-10-04T23:41:20;11.88;;;5.97;;
52708;SDS011;38606;52.986;6.980;2022-10-04T23:43:46;9.43;;;5.80;;
52708;SDS011;38606;52.986;6.980;2022-10-04T23:46:14;12.75;;;6.18;;
52708;SDS011;38606;52.986;6.980;2022-10-04T23:48:43;10.30;;;6.18;;
52708;SDS011;38606;52.986;6.980;2022-10-04T23:51:16;16.02;;;6.30;;
52708;SDS011;38606;52.986;6.980;2022-10-04T23:53:43;11.50;;;5.85;;
52708;SDS011;38606;52.986;6.980;2022-10-04T23:56:22;11.63;;;6.15;;
52708;SDS011;38606;52.986;6.980;2022-10-04T23:58:50;8.38;;;5.78;;
